Ronja Harvester — LAWU — position and weather

sailwx.info

Track history (hours):
 
Tides and Currents Weather Stations Pressure Air Temp Water Temp Dewpoint Dewpoint Depression Visibility Wind Speed Wind Dir Waves Ship Positions

Ronja Harvester

Last reported at 2017-Oct-19 19:59 UTC. Time now 2017-Oct-19 20:13 UTC.
Position N 70°01' E 020°36'.

Length 68 m; draft 5.8 m.

Type: Cargo ship. MMSI: 258799000.

Date/timePositionNaut miles runAvg speedWind from/ knotsBaromVisibWave heightAir tempDewpointWater temp
2017-Oct-19 19:59N 70°01' E 020°36'4 7.2
2017-Oct-19 19:29N 70°00' E 020°25'3 6.9
2017-Oct-19 19:00N 69°59' E 020°16'3 6.5
2017-Oct-19 18:30N 69°57' E 020°08'3 6.8
2017-Oct-19 18:00N 69°55' E 020°00'4 7.3
2017-Oct-19 17:29N 69°53' E 019°52'3 7.1
2017-Oct-19 17:00N 69°51' E 019°44'4 7.3
2017-Oct-19 16:30N 69°49' E 019°34'4 7.3
2017-Oct-19 16:00N 69°48' E 019°24'4 7.2
2017-Oct-19 15:30N 69°47' E 019°15'3 7.0
2017-Oct-19 15:00N 69°46' E 019°05'4 7.4
2017-Oct-19 14:30N 69°42' E 019°03'4 7.8
2017-Oct-19 14:00N 69°39' E 018°58'4 8.5
2017-Oct-19 13:30N 69°35' E 018°51'3 6.9
2017-Oct-19 13:00N 69°33' E 018°42'4 7.9
2017-Oct-19 12:30N 69°32' E 018°31'4 8.2
2017-Oct-19 12:00N 69°31' E 018°20'4 8.4
2017-Oct-19 11:30N 69°31' E 018°08'2 4.7
2017-Oct-19 11:00N 69°30' E 018°01'0 0.0
2017-Oct-19 10:30N 69°30' E 018°01'0 0.0
2017-Oct-19 10:00N 69°30' E 018°01'0 0.0
2017-Oct-19 09:30N 69°30' E 018°01'0 0.5
2017-Oct-19 09:00N 69°31' E 018°02'1 1.6
2017-Oct-19 08:30N 69°31' E 018°04'510.3
2017-Oct-19 07:59N 69°31' E 018°19'611.6
2017-Oct-19 07:30N 69°33' E 018°35'5 9.7
2017-Oct-19 07:00N 69°34' E 018°48'5 9.8
2017-Oct-19 06:30N 69°38' E 018°57'5 9.3
2017-Oct-19 06:00N 69°42' E 019°03'5 9.4
2017-Oct-19 05:30N 69°46' E 019°09'510.2
2017-Oct-19 05:00N 69°48' E 019°23'510.3
2017-Oct-19 04:30N 69°50' E 019°37'510.1
2017-Oct-19 04:00N 69°52' E 019°49'5 9.9
2017-Oct-19 03:30N 69°55' E 020°01'510.5
2017-Oct-19 03:00N 69°59' E 020°13'611.6
2017-Oct-19 02:30N 70°00' E 020°29'611.7
2017-Oct-19 02:00N 70°02' E 020°45'511.0
2017-Oct-19 01:30N 70°04' E 020°60'2 3.7
2017-Oct-19 01:00N 70°02' E 020°59'0 0.0
2017-Oct-19 00:30N 70°02' E 020°59'0 0.0
2017-Oct-18 23:59N 70°02' E 020°59'0 0.0
2017-Oct-18 23:30N 70°02' E 020°59'2 3.7
2017-Oct-18 23:00N 70°04' E 020°57'611.0
2017-Oct-18 22:30N 70°02' E 020°42'510.7
2017-Oct-18 21:59N 70°00' E 020°26'510.3
2017-Oct-18 21:29N 69°58' E 020°12'510.4
2017-Oct-18 20:59N 69°55' E 020°00'510.5
2017-Oct-18 20:30N 69°52' E 019°49'510.3
2017-Oct-18 19:59N 69°50' E 019°35'510.7
2017-Oct-18 19:30N 69°48' E 019°21'510.8
2017-Oct-18 19:00N 69°46' E 019°07'510.2
2017-Oct-18 18:30N 69°41' E 019°02'3 6.7
2017-Oct-18 18:00N 69°38' E 018°56'5 9.3
2017-Oct-18 17:29N 69°34' E 018°49'5 9.8
2017-Oct-18 17:00N 69°33' E 018°36'510.1
2017-Oct-18 16:30N 69°31' E 018°22'510.2
2017-Oct-18 16:00N 69°31' E 018°08'2 4.4
2017-Oct-18 15:30N 69°30' E 018°01'0 0.0
2017-Oct-18 14:59N 69°30' E 018°01'0 0.0
2017-Oct-18 14:00N 69°30' E 018°01'0 0.0
2017-Oct-18 13:30N 69°30' E 018°01'0 0.0
2017-Oct-18 12:59N 69°30' E 018°01'0 0.0
2017-Oct-18 12:29N 69°30' E 018°01'0 0.2
2017-Oct-18 12:00N 69°30' E 018°01'0 0.1
2017-Oct-18 11:30N 69°30' E 018°01'0 0.6
2017-Oct-18 11:00N 69°31' E 018°02'5 9.7
2017-Oct-18 10:30N 69°31' E 018°16'511.0
2017-Oct-18 10:00N 69°32' E 018°31'510.0
2017-Oct-18 09:30N 69°33' E 018°45'5 8.9
2017-Oct-18 08:59N 69°37' E 018°54'3 6.5
2017-Oct-18 08:30N 69°39' E 018°59'4 8.6
2017-Oct-18 08:00N 69°43' E 019°03'4 8.8
2017-Oct-18 07:30N 69°47' E 019°11'5 9.7
2017-Oct-18 07:00N 69°48' E 019°25'5 9.9
2017-Oct-18 06:30N 69°50' E 019°38'510.0
2017-Oct-18 06:00N 69°53' E 019°50'510.1
2017-Oct-18 05:30N 69°56' E 020°01'510.2
2017-Oct-18 05:00N 69°59' E 020°13'511.0
2017-Oct-18 04:30N 70°01' E 020°29'611.4
2017-Oct-18 04:00N 70°02' E 020°45'611.4
2017-Oct-18 03:30N 70°04' E 021°01'2 3.7
2017-Oct-18 03:00N 70°02' E 020°59'0 0.0
2017-Oct-18 02:30N 70°02' E 020°59'0 0.0
2017-Oct-18 02:00N 70°02' E 020°59'0 0.0
2017-Oct-18 01:30N 70°02' E 020°59'2 4.5
2017-Oct-18 01:00N 70°04' E 021°03'5 8.8
2017-Oct-18 00:29N 70°08' E 021°06'4 8.7
2017-Oct-18 00:00N 70°12' E 021°09'5 9.0
2017-Oct-17 23:29N 70°16' E 021°18'5 9.7
2017-Oct-17 22:59N 70°19' E 021°28'510.3
2017-Oct-17 22:30N 70°23' E 021°38'5 9.8
2017-Oct-17 22:00N 70°25' E 021°52'5 9.7
2017-Oct-17 21:30N 70°26' E 022°06'5 9.8
2017-Oct-17 21:00N 70°27' E 022°20'510.5
2017-Oct-17 20:30N 70°29' E 022°35'510.2
2017-Oct-17 19:59N 70°30' E 022°50'5 9.5
2017-Oct-17 19:30N 70°33' E 023°02'5 9.9
2017-Oct-17 19:00N 70°37' E 023°10'510.6
2017-Oct-17 18:30N 70°41' E 023°20'611.1
2017-Oct-17 18:00N 70°44' E 023°33'510.4
2017-Oct-17 17:29N 70°48' E 023°46'510.5
2017-Oct-17 17:00N 70°51' E 023°58'510.7
2017-Oct-17 16:30N 70°54' E 024°11'510.7
2017-Oct-17 16:00N 70°58' E 024°22'510.4
2017-Oct-17 15:30N 71°02' E 024°33'510.7
2017-Oct-17 15:00N 71°00' E 024°49'510.2
2017-Oct-17 14:29N 70°59' E 025°05'510.4
2017-Oct-17 14:00N 70°59' E 025°20'5 9.5
2017-Oct-17 13:30N 70°56' E 025°31'5 9.9
2017-Oct-17 13:00N 70°56' E 025°47'510.4
2017-Oct-17 12:30N 70°56' E 026°02'510.5
2017-Oct-17 12:00N 70°57' E 026°18'510.0
2017-Oct-17 11:30N 70°58' E 026°33'5 9.3
2017-Oct-17 10:59N 70°58' E 026°47'510.4
2017-Oct-17 10:30N 70°55' E 027°01'510.4
2017-Oct-17 10:00N 70°53' E 027°14'510.4
2017-Oct-17 09:30N 70°50' E 027°27'1 2.5
2017-Oct-17 09:00N 70°49' E 027°30'0 0.0
2017-Oct-17 08:30N 70°49' E 027°30'0 0.0
2017-Oct-17 07:59N 70°49' E 027°30'0 0.0
2017-Oct-17 07:29N 70°49' E 027°30'0 0.0
2017-Oct-17 07:01N 70°49' E 027°30'0 0.0
2017-Oct-17 06:26N 70°49' E 027°30'0 0.0
2017-Oct-17 06:00N 70°49' E 027°30'0 0.0
2017-Oct-17 05:30N 70°49' E 027°30'0 0.0
2017-Oct-17 05:00N 70°49' E 027°30'0 0.0
2017-Oct-17 04:30N 70°49' E 027°30'0 0.0
2017-Oct-17 04:00N 70°49' E 027°30'1 2.2
2017-Oct-17 03:30N 70°50' E 027°28'5 8.9
2017-Oct-17 03:00N 70°52' E 027°16'611.2
2017-Oct-17 02:30N 70°55' E 027°01'611.5
2017-Oct-17 02:00N 70°58' E 026°46'510.9
2017-Oct-17 01:30N 70°58' E 026°30'611.2
2017-Oct-17 01:00N 70°57' E 026°13'611.2
2017-Oct-17 00:30N 70°56' E 025°56'611.5
2017-Oct-17 00:00N 70°56' E 025°39'612.2
2017-Oct-16 23:30N 70°59' E 025°23'611.8
2017-Oct-16 23:00N 70°59' E 025°04'612.2
2017-Oct-16 22:30N 71°00' E 024°46'611.1
2017-Oct-16 22:00N 71°00' E 024°29'612.0
2017-Oct-16 21:30N 70°56' E 024°17'611.2
2017-Oct-16 21:00N 70°52' E 024°04'510.5
2017-Oct-16 20:30N 70°49' E 023°52'510.3
2017-Oct-16 20:00N 70°46' E 023°39'510.6
2017-Oct-16 19:30N 70°43' E 023°27'510.2
2017-Oct-16 19:00N 70°39' E 023°15'611.0
2017-Oct-16 18:30N 70°34' E 023°06'510.8
2017-Oct-16 18:00N 70°30' E 022°55'510.3
2017-Oct-16 17:30N 70°29' E 022°41'510.9
2017-Oct-16 17:00N 70°28' E 022°25'611.7
2017-Oct-16 16:30N 70°26' E 022°08'611.7
2017-Oct-16 16:01N 70°25' E 021°51'611.0
2017-Oct-16 15:29N 70°22' E 021°36'611.6
2017-Oct-16 15:00N 70°18' E 021°25'1111.1
2017-Oct-16 14:00N 70°09' E 021°07'611.4
2017-Oct-16 13:30N 70°03' E 021°03'2 3.0
2017-Oct-16 12:59N 70°02' E 020°59'0 0.0
2017-Oct-16 12:30N 70°02' E 020°59'0 0.0
2017-Oct-16 12:00N 70°02' E 020°59'0 0.0
2017-Oct-16 11:29N 70°02' E 020°59'2 3.2
2017-Oct-16 11:00N 70°03' E 021°03'5 9.9
2017-Oct-16 10:30N 70°08' E 021°06'5 9.3
2017-Oct-16 09:59N 70°13' E 021°08'5 9.5
2017-Oct-16 09:30N 70°16' E 021°18'5 9.9
2017-Oct-16 09:00N 70°19' E 021°29'5 9.9
2017-Oct-16 08:30N 70°23' E 021°38'5 9.8
2017-Oct-16 08:00N 70°25' E 021°52'5 9.9
2017-Oct-16 07:30N 70°26' E 022°06'510.1
2017-Oct-16 07:00N 70°27' E 022°21'510.4
2017-Oct-16 06:30N 70°29' E 022°36'510.2
2017-Oct-16 06:00N 70°30' E 022°51'5 9.4
2017-Oct-16 05:30N 70°33' E 023°02'5 9.5
2017-Oct-16 05:00N 70°36' E 023°12'5 9.7
2017-Oct-16 04:30N 70°40' E 023°22'5 9.9
2017-Oct-16 04:00N 70°44' E 023°32'5 9.6
2017-Oct-16 03:29N 70°47' E 023°43'5 9.8
2017-Oct-16 03:00N 70°50' E 023°54'5 9.8
2017-Oct-16 02:30N 70°53' E 024°06'510.2
2017-Oct-16 02:00N 70°56' E 024°17'5 9.7
2017-Oct-16 01:30N 70°60' E 024°27'4 8.8
2017-Oct-16 01:00N 71°01' E 024°40'510.1
2017-Oct-16 00:30N 70°60' E 024°55'510.0
2017-Oct-16 00:01N 70°59' E 025°10'5 9.8
2017-Oct-15 23:31N 70°58' E 025°25'4 8.4
2017-Oct-15 23:00N 70°56' E 025°35'510.3
2017-Oct-15 22:30N 70°56' E 025°51'510.2
2017-Oct-15 22:00N 70°57' E 026°06'510.4
2017-Oct-15 21:30N 70°58' E 026°22'510.2
2017-Oct-15 21:00N 70°58' E 026°37'5 9.5
2017-Oct-15 20:30N 70°57' E 026°51'510.3
2017-Oct-15 20:00N 70°54' E 027°05'510.4
2017-Oct-15 19:30N 70°52' E 027°18'5 9.5
2017-Oct-15 19:00N 70°49' E 027°30'0 0.2
2017-Oct-15 18:30N 70°49' E 027°30'0 0.0
2017-Oct-15 18:00N 70°49' E 027°30'0 0.0
2017-Oct-15 17:30N 70°49' E 027°30'0 0.0
2017-Oct-15 17:00N 70°49' E 027°30'0 0.0
2017-Oct-15 16:30N 70°49' E 027°30'0 0.0
2017-Oct-15 16:00N 70°49' E 027°30'0 0.5
2017-Oct-15 15:30N 70°49' E 027°30'5 9.4
2017-Oct-15 15:00N 70°52' E 027°18'1110.9
2017-Oct-15 14:00N 70°57' E 026°49'510.2
2017-Oct-15 13:30N 70°58' E 026°34'611.2
2017-Oct-15 13:00N 70°57' E 026°17'611.1
2017-Oct-15 12:30N 70°56' E 026°01'611.4
2017-Oct-15 12:00N 70°56' E 025°44'610.7
2017-Oct-15 11:29N 70°58' E 025°27'510.8
2017-Oct-15 11:00N 70°59' E 025°12'611.0
2017-Oct-15 10:30N 70°60' E 024°55'510.7
2017-Oct-15 10:00N 71°01' E 024°39'5 9.7
2017-Oct-15 09:30N 70°59' E 024°26'611.3
2017-Oct-15 09:00N 70°55' E 024°15'611.4
2017-Oct-15 08:30N 70°51' E 024°01'510.8
2017-Oct-15 08:00N 70°48' E 023°49'611.2
2017-Oct-15 07:30N 70°44' E 023°36'611.5
2017-Oct-15 07:00N 70°40' E 023°24'611.5
2017-Oct-15 06:30N 70°36' E 023°11'611.9
2017-Oct-15 06:00N 70°32' E 022°59'611.8
2017-Oct-15 05:29N 70°30' E 022°42'510.6
2017-Oct-15 05:00N 70°28' E 022°28'611.5
2017-Oct-15 04:30N 70°27' E 022°11'611.6
2017-Oct-15 04:00N 70°25' E 021°54'611.3
2017-Oct-15 03:30N 70°23' E 021°38'611.5
2017-Oct-15 03:00N 70°19' E 021°27'611.5
2017-Oct-15 02:30N 70°15' E 021°14'611.4
2017-Oct-15 01:59N 70°10' E 021°07'611.6
2017-Oct-15 01:30N 70°04' E 021°03'2 4.9
2017-Oct-15 01:00N 70°02' E 020°59'0 0.0
2017-Oct-15 00:30N 70°02' E 020°59'0 0.0
2017-Oct-15 00:00N 70°02' E 020°59'0 0.0
2017-Oct-14 23:30N 70°02' E 020°59'3 5.6
2017-Oct-14 22:59N 70°04' E 021°04'5 9.8
2017-Oct-14 22:30N 70°09' E 021°07'5 9.2
2017-Oct-14 22:00N 70°14' E 021°10'5 9.8
2017-Oct-14 21:30N 70°17' E 021°21'510.1
2017-Oct-14 21:00N 70°20' E 021°32'5 9.8
2017-Oct-14 20:30N 70°24' E 021°41'5 9.7
2017-Oct-14 20:00N 70°25' E 021°56'5 9.8
2017-Oct-14 19:30N 70°26' E 022°10'510.1
2017-Oct-14 18:59N 70°28' E 022°25'510.1
2017-Oct-14 18:30N 70°29' E 022°39'5 9.5
2017-Oct-14 18:00N 70°30' E 022°52'4 8.9
2017-Oct-14 17:30N 70°33' E 023°03'5 9.0
2017-Oct-14 17:00N 70°36' E 023°13'5 9.1
2017-Oct-14 16:30N 70°40' E 023°22'5 9.3
2017-Oct-14 16:00N 70°43' E 023°31'5 9.7
2017-Oct-14 15:30N 70°46' E 023°42'5 9.5
2017-Oct-14 15:00N 70°49' E 023°53'5 9.5
2017-Oct-14 14:30N 70°52' E 024°04'5 9.7
2017-Oct-14 14:00N 70°56' E 024°16'5 9.5
2017-Oct-14 13:30N 70°59' E 024°25'5 9.0
2017-Oct-14 13:00N 71°01' E 024°38'510.5
2017-Oct-14 12:30N 70°60' E 024°53'510.2
2017-Oct-14 12:00N 70°59' E 025°08'510.2
2017-Oct-14 11:30N 70°59' E 025°24'510.1
2017-Oct-14 11:00N 70°56' E 025°37'510.3
2017-Oct-14 10:30N 70°56' E 025°52'5 9.9
2017-Oct-14 10:00N 70°57' E 026°07'510.1
2017-Oct-14 09:30N 70°58' E 026°22'5 9.9
2017-Oct-14 09:00N 70°58' E 026°37'5 9.7
2017-Oct-14 08:30N 70°57' E 026°51'510.3
2017-Oct-14 08:00N 70°54' E 027°05'510.4
2017-Oct-14 07:30N 70°52' E 027°18'5 9.4
2017-Oct-14 07:00N 70°49' E 027°30'0 0.1
2017-Oct-14 06:30N 70°49' E 027°30'0 0.0
2017-Oct-14 06:00N 70°49' E 027°30'0 0.0
2017-Oct-14 05:30N 70°49' E 027°30'0 0.0
2017-Oct-14 05:00N 70°49' E 027°30'0 0.0
2017-Oct-14 04:30N 70°49' E 027°30'0 0.0
2017-Oct-14 04:00N 70°49' E 027°30'0 0.0
2017-Oct-14 03:30N 70°49' E 027°30'0 0.0
2017-Oct-14 03:00N 70°49' E 027°30'1 1.8
2017-Oct-14 02:30N 70°49' E 027°28'5 9.0
2017-Oct-14 02:00N 70°52' E 027°16'511.0
2017-Oct-14 01:30N 70°55' E 027°02'510.5
2017-Oct-14 01:00N 70°58' E 026°48'5 9.8
2017-Oct-14 00:30N 70°58' E 026°34'611.2
2017-Oct-14 00:00N 70°57' E 026°17'611.1
2017-Oct-13 23:30N 70°56' E 026°00'611.4
2017-Oct-13 23:00N 70°56' E 025°42'510.1
2017-Oct-13 22:30N 70°57' E 025°28'5 9.8
2017-Oct-13 22:00N 70°59' E 025°14'5 9.9
2017-Oct-13 21:30N 70°59' E 024°59'510.2
2017-Oct-13 21:00N 71°01' E 024°44'5 9.3
2017-Oct-13 20:30N 71°00' E 024°30'510.7
2017-Oct-13 20:00N 70°56' E 024°19'611.3
2017-Oct-13 19:30N 70°53' E 024°06'510.5
2017-Oct-13 19:00N 70°50' E 023°54'510.7
2017-Oct-13 18:30N 70°46' E 023°41'510.6
2017-Oct-13 18:00N 70°42' E 023°32'3 6.4
2017-Oct-13 17:30N 70°40' E 023°40'0 0.0
2017-Oct-13 17:00N 70°40' E 023°40'0 0.0
2017-Oct-13 16:30N 70°40' E 023°40'0 0.0
2017-Oct-13 16:00N 70°40' E 023°40'0 0.0
2017-Oct-13 15:30N 70°40' E 023°40'1 1.1
2017-Oct-13 15:00N 70°40' E 023°39'2 3.4
2017-Oct-13 14:30N 70°39' E 023°34'5 9.9
2017-Oct-13 14:00N 70°37' E 023°20'612.4
2017-Oct-13 13:30N 70°33' E 023°06'611.8
2017-Oct-13 13:00N 70°30' E 022°51'511.2
2017-Oct-13 12:30N 70°29' E 022°35'611.2
2017-Oct-13 12:00N 70°27' E 022°18'611.7
2017-Oct-13 11:30N 70°26' E 022°01'611.7
2017-Oct-13 11:00N 70°24' E 021°45'611.0
2017-Oct-13 10:29N 70°20' E 021°32'611.6
2017-Oct-13 10:00N 70°17' E 021°20'611.5
2017-Oct-13 09:30N 70°12' E 021°09'612.3
2017-Oct-13 08:59N 70°06' E 021°05'5 9.5
2017-Oct-13 08:30N 70°02' E 020°59'0 0.2
2017-Oct-13 08:00N 70°02' E 020°59'84 8.2
2017-Oct-12 21:40N 69°09' E 017°51'210.3
2017-Oct-12 21:30N 69°09' E 017°46'510.2
2017-Oct-12 21:00N 69°07' E 017°33'19 4.2
2017-Oct-12 16:24N 68°56' E 016°48'410.2
2017-Oct-12 15:59N 68°58' E 016°58'611.9
2017-Oct-12 15:29N 69°00' E 017°14'611.8
2017-Oct-12 15:00N 69°05' E 017°23'611.7
2017-Oct-12 14:30N 69°08' E 017°38'612.0
2017-Oct-12 14:00N 69°10' E 017°53'4 7.9
2017-Oct-12 13:30N 69°13' E 017°57'611.3
2017-Oct-12 13:00N 69°19' E 017°59'511.0
2017-Oct-12 12:30N 69°24' E 018°06'510.8
2017-Oct-12 12:00N 69°29' E 018°11'611.8
2017-Oct-12 11:30N 69°31' E 018°26'611.5
2017-Oct-12 11:00N 69°33' E 018°42'611.1
2017-Oct-12 10:30N 69°37' E 018°54'2 3.2
2017-Oct-12 10:00N 69°38' E 018°57'510.5
2017-Oct-12 09:30N 69°43' E 019°03'510.6
2017-Oct-12 09:00N 69°47' E 019°13'611.8
2017-Oct-12 08:30N 69°49' E 019°29'611.7
2017-Oct-12 08:00N 69°51' E 019°44'611.6
2017-Oct-12 07:30N 69°55' E 019°58'611.7
2017-Oct-12 07:00N 69°58' E 020°12'611.4
2017-Oct-12 06:30N 70°01' E 020°27'611.4
2017-Oct-12 06:00N 70°02' E 020°43'510.8
2017-Oct-12 05:30N 70°04' E 020°58'2 3.8
2017-Oct-12 05:00N 70°02' E 020°59'0 0.0
2017-Oct-12 04:30N 70°02' E 020°59'0 0.0
2017-Oct-12 03:59N 70°02' E 020°59'0 0.0
2017-Oct-12 03:30N 70°02' E 020°59'0 0.7
2017-Oct-12 03:00N 70°02' E 021°00'3 6.1
2017-Oct-12 02:30N 70°03' E 020°52'611.0
2017-Oct-12 02:00N 70°01' E 020°37'510.5
2017-Oct-12 01:30N 69°60' E 020°22'510.4
2017-Oct-12 01:00N 69°58' E 020°09'510.6
2017-Oct-12 00:30N 69°54' E 019°57'510.6
2017-Oct-12 00:00N 69°51' E 019°45'510.8
2017-Oct-11 23:30N 69°49' E 019°30'510.8
2017-Oct-11 23:00N 69°47' E 019°16'510.3
2017-Oct-11 22:30N 69°44' E 019°04'510.5
2017-Oct-11 22:00N 69°39' E 018°59'510.7
2017-Oct-11 21:30N 69°35' E 018°50'4 8.9
2017-Oct-11 21:00N 69°33' E 018°39'510.3
2017-Oct-11 20:30N 69°31' E 018°25'5 9.9
2017-Oct-11 20:00N 69°29' E 018°12'5 9.6
2017-Oct-11 19:30N 69°24' E 018°07'510.1
2017-Oct-11 19:00N 69°20' E 018°02'5 9.7
2017-Oct-11 18:30N 69°15' E 017°58'4 8.6
2017-Oct-11 18:00N 69°11' E 017°59'510.0
2017-Oct-11 17:30N 69°08' E 017°47'510.3
2017-Oct-11 17:00N 69°07' E 017°33'31 1.8
2017-Oct-11 00:00N 69°31' E 018°28'511.0
2017-Oct-10 23:30N 69°33' E 018°43'5 9.7
2017-Oct-10 23:00N 69°36' E 018°53'611.0
2017-Oct-10 22:30N 69°41' E 019°02'510.9
2017-Oct-10 22:00N 69°46' E 019°08'611.7
2017-Oct-10 21:30N 69°48' E 019°24'611.7
2017-Oct-10 21:00N 69°50' E 019°40'611.7
2017-Oct-10 20:30N 69°54' E 019°54'611.8
2017-Oct-10 20:00N 69°57' E 020°08'611.7
2017-Oct-10 19:30N 70°00' E 020°22'611.7
2017-Oct-10 19:00N 70°02' E 020°39'611.7
2017-Oct-10 18:30N 70°03' E 020°55'2 4.0
2017-Oct-10 18:00N 70°02' E 020°59'0 0.0
2017-Oct-10 17:30N 70°02' E 020°59'0 0.0
2017-Oct-10 17:00N 70°02' E 020°59'0 0.0
2017-Oct-10 16:30N 70°02' E 020°59'0 0.1
2017-Oct-10 15:59N 70°02' E 020°59'2 4.4
2017-Oct-10 15:30N 70°03' E 020°55'611.2
2017-Oct-10 15:00N 70°02' E 020°39'1010.5
2017-Oct-10 14:00N 69°58' E 020°10'510.6
2017-Oct-10 13:29N 69°55' E 019°58'510.3
2017-Oct-10 13:00N 69°52' E 019°47'510.6
2017-Oct-10 12:30N 69°49' E 019°33'510.7
2017-Oct-10 12:00N 69°47' E 019°18'510.6
2017-Oct-10 11:30N 69°45' E 019°05'510.6
2017-Oct-10 11:00N 69°40' E 019°00'611.0
2017-Oct-10 10:30N 69°35' E 018°51'611.5
2017-Oct-10 10:00N 69°33' E 018°37'510.7
2017-Oct-10 09:30N 69°31' E 018°22'510.3
2017-Oct-10 08:59N 69°28' E 018°09'510.3
2017-Oct-10 08:29N 69°23' E 018°06'5 9.6
2017-Oct-10 08:00N 69°19' E 018°00'5 9.7
2017-Oct-10 07:30N 69°14' E 017°58'4 8.1
2017-Oct-10 07:00N 69°10' E 017°58'510.2
2017-Oct-10 06:30N 69°08' E 017°45'510.3
2017-Oct-10 06:00N 69°07' E 017°32'5 9.8
2017-Oct-10 05:30N 69°03' E 017°21'510.0
2017-Oct-10 05:00N 68°60' E 017°12'510.3
2017-Oct-10 04:30N 68°58' E 016°58'510.3
2017-Oct-10 04:00N 68°56' E 016°45'1 1.1
2017-Oct-10 03:30N 68°56' E 016°44'0 0.0
2017-Oct-10 03:00N 68°56' E 016°44'0 0.0
2017-Oct-10 02:30N 68°56' E 016°44'0 0.0
2017-Oct-10 02:00N 68°56' E 016°44'0 0.0
2017-Oct-10 01:30N 68°56' E 016°44'0 0.0
2017-Oct-10 01:00N 68°56' E 016°44'0 0.0
2017-Oct-10 00:30N 68°56' E 016°44'0 0.0
2017-Oct-10 00:00N 68°56' E 016°44'0 0.0
2017-Oct-09 23:30N 68°56' E 016°44'1 1.5
2017-Oct-09 23:00N 68°56' E 016°45'3 5.8
2017-Oct-09 22:30N 68°58' E 016°53'4 7.9
2017-Oct-09 22:00N 68°59' E 017°03'611.4
2017-Oct-09 21:30N 69°01' E 017°17'611.7
2017-Oct-09 21:00N 69°06' E 017°28'612.0
2017-Oct-09 20:30N 69°08' E 017°43'612.0
2017-Oct-09 20:00N 69°11' E 017°59'  
Track history (hours):
 
Tides and Currents Weather Stations Pressure Air Temp Water Temp Dewpoint Dewpoint Depression Visibility Wind Speed Wind Dir Waves Ship Positions

Ronja Harvester

Last reported at 2017-Oct-19 19:59 UTC. Time now 2017-Oct-19 20:13 UTC.
Position N 70°01' E 020°36'.

Length 68 m; draft 5.8 m.

Type: Cargo ship. MMSI: 258799000.

Date/timePositionNaut miles runAvg speedWind from/ knotsBaromVisibWave heightAir tempDewpointWater temp
2017-Oct-19 19:59N 70°01' E 020°36'4 7.2
2017-Oct-19 19:29N 70°00' E 020°25'3 6.9
2017-Oct-19 19:00N 69°59' E 020°16'3 6.5
2017-Oct-19 18:30N 69°57' E 020°08'3 6.8
2017-Oct-19 18:00N 69°55' E 020°00'4 7.3
2017-Oct-19 17:29N 69°53' E 019°52'3 7.1
2017-Oct-19 17:00N 69°51' E 019°44'4 7.3
2017-Oct-19 16:30N 69°49' E 019°34'4 7.3
2017-Oct-19 16:00N 69°48' E 019°24'4 7.2
2017-Oct-19 15:30N 69°47' E 019°15'3 7.0
2017-Oct-19 15:00N 69°46' E 019°05'4 7.4
2017-Oct-19 14:30N 69°42' E 019°03'4 7.8
2017-Oct-19 14:00N 69°39' E 018°58'4 8.5
2017-Oct-19 13:30N 69°35' E 018°51'3 6.9
2017-Oct-19 13:00N 69°33' E 018°42'4 7.9
2017-Oct-19 12:30N 69°32' E 018°31'4 8.2
2017-Oct-19 12:00N 69°31' E 018°20'4 8.4
2017-Oct-19 11:30N 69°31' E 018°08'2 4.7
2017-Oct-19 11:00N 69°30' E 018°01'0 0.0
2017-Oct-19 10:30N 69°30' E 018°01'0 0.0
2017-Oct-19 10:00N 69°30' E 018°01'0 0.0
2017-Oct-19 09:30N 69°30' E 018°01'0 0.5
2017-Oct-19 09:00N 69°31' E 018°02'1 1.6
2017-Oct-19 08:30N 69°31' E 018°04'510.3
2017-Oct-19 07:59N 69°31' E 018°19'611.6
2017-Oct-19 07:30N 69°33' E 018°35'5 9.7
2017-Oct-19 07:00N 69°34' E 018°48'5 9.8
2017-Oct-19 06:30N 69°38' E 018°57'5 9.3
2017-Oct-19 06:00N 69°42' E 019°03'5 9.4
2017-Oct-19 05:30N 69°46' E 019°09'510.2
2017-Oct-19 05:00N 69°48' E 019°23'510.3
2017-Oct-19 04:30N 69°50' E 019°37'510.1
2017-Oct-19 04:00N 69°52' E 019°49'5 9.9
2017-Oct-19 03:30N 69°55' E 020°01'510.5
2017-Oct-19 03:00N 69°59' E 020°13'611.6
2017-Oct-19 02:30N 70°00' E 020°29'611.7
2017-Oct-19 02:00N 70°02' E 020°45'511.0
2017-Oct-19 01:30N 70°04' E 020°60'2 3.7
2017-Oct-19 01:00N 70°02' E 020°59'0 0.0
2017-Oct-19 00:30N 70°02' E 020°59'0 0.0
2017-Oct-18 23:59N 70°02' E 020°59'0 0.0
2017-Oct-18 23:30N 70°02' E 020°59'2 3.7
2017-Oct-18 23:00N 70°04' E 020°57'611.0
2017-Oct-18 22:30N 70°02' E 020°42'510.7
2017-Oct-18 21:59N 70°00' E 020°26'510.3
2017-Oct-18 21:29N 69°58' E 020°12'510.4
2017-Oct-18 20:59N 69°55' E 020°00'510.5
2017-Oct-18 20:30N 69°52' E 019°49'510.3
2017-Oct-18 19:59N 69°50' E 019°35'510.7
2017-Oct-18 19:30N 69°48' E 019°21'510.8
2017-Oct-18 19:00N 69°46' E 019°07'510.2
2017-Oct-18 18:30N 69°41' E 019°02'3 6.7
2017-Oct-18 18:00N 69°38' E 018°56'5 9.3
2017-Oct-18 17:29N 69°34' E 018°49'5 9.8
2017-Oct-18 17:00N 69°33' E 018°36'510.1
2017-Oct-18 16:30N 69°31' E 018°22'510.2
2017-Oct-18 16:00N 69°31' E 018°08'2 4.4
2017-Oct-18 15:30N 69°30' E 018°01'0 0.0
2017-Oct-18 14:59N 69°30' E 018°01'0 0.0
2017-Oct-18 14:00N 69°30' E 018°01'0 0.0
2017-Oct-18 13:30N 69°30' E 018°01'0 0.0
2017-Oct-18 12:59N 69°30' E 018°01'0 0.0
2017-Oct-18 12:29N 69°30' E 018°01'0 0.2
2017-Oct-18 12:00N 69°30' E 018°01'0 0.1
2017-Oct-18 11:30N 69°30' E 018°01'0 0.6
2017-Oct-18 11:00N 69°31' E 018°02'5 9.7
2017-Oct-18 10:30N 69°31' E 018°16'511.0
2017-Oct-18 10:00N 69°32' E 018°31'510.0
2017-Oct-18 09:30N 69°33' E 018°45'5 8.9
2017-Oct-18 08:59N 69°37' E 018°54'3 6.5
2017-Oct-18 08:30N 69°39' E 018°59'4 8.6
2017-Oct-18 08:00N 69°43' E 019°03'4 8.8
2017-Oct-18 07:30N 69°47' E 019°11'5 9.7
2017-Oct-18 07:00N 69°48' E 019°25'5 9.9
2017-Oct-18 06:30N 69°50' E 019°38'510.0
2017-Oct-18 06:00N 69°53' E 019°50'510.1
2017-Oct-18 05:30N 69°56' E 020°01'510.2
2017-Oct-18 05:00N 69°59' E 020°13'511.0
2017-Oct-18 04:30N 70°01' E 020°29'611.4
2017-Oct-18 04:00N 70°02' E 020°45'611.4
2017-Oct-18 03:30N 70°04' E 021°01'2 3.7
2017-Oct-18 03:00N 70°02' E 020°59'0 0.0
2017-Oct-18 02:30N 70°02' E 020°59'0 0.0
2017-Oct-18 02:00N 70°02' E 020°59'0 0.0
2017-Oct-18 01:30N 70°02' E 020°59'2 4.5
2017-Oct-18 01:00N 70°04' E 021°03'5 8.8
2017-Oct-18 00:29N 70°08' E 021°06'4 8.7
2017-Oct-18 00:00N 70°12' E 021°09'5 9.0
2017-Oct-17 23:29N 70°16' E 021°18'5 9.7
2017-Oct-17 22:59N 70°19' E 021°28'510.3
2017-Oct-17 22:30N 70°23' E 021°38'5 9.8
2017-Oct-17 22:00N 70°25' E 021°52'5 9.7
2017-Oct-17 21:30N 70°26' E 022°06'5 9.8
2017-Oct-17 21:00N 70°27' E 022°20'510.5
2017-Oct-17 20:30N 70°29' E 022°35'510.2
2017-Oct-17 19:59N 70°30' E 022°50'5 9.5
2017-Oct-17 19:30N 70°33' E 023°02'5 9.9
2017-Oct-17 19:00N 70°37' E 023°10'510.6
2017-Oct-17 18:30N 70°41' E 023°20'611.1
2017-Oct-17 18:00N 70°44' E 023°33'510.4
2017-Oct-17 17:29N 70°48' E 023°46'510.5
2017-Oct-17 17:00N 70°51' E 023°58'510.7
2017-Oct-17 16:30N 70°54' E 024°11'510.7
2017-Oct-17 16:00N 70°58' E 024°22'510.4
2017-Oct-17 15:30N 71°02' E 024°33'510.7
2017-Oct-17 15:00N 71°00' E 024°49'510.2
2017-Oct-17 14:29N 70°59' E 025°05'510.4
2017-Oct-17 14:00N 70°59' E 025°20'5 9.5
2017-Oct-17 13:30N 70°56' E 025°31'5 9.9
2017-Oct-17 13:00N 70°56' E 025°47'510.4
2017-Oct-17 12:30N 70°56' E 026°02'510.5
2017-Oct-17 12:00N 70°57' E 026°18'510.0
2017-Oct-17 11:30N 70°58' E 026°33'5 9.3
2017-Oct-17 10:59N 70°58' E 026°47'510.4
2017-Oct-17 10:30N 70°55' E 027°01'510.4
2017-Oct-17 10:00N 70°53' E 027°14'510.4
2017-Oct-17 09:30N 70°50' E 027°27'1 2.5
2017-Oct-17 09:00N 70°49' E 027°30'0 0.0
2017-Oct-17 08:30N 70°49' E 027°30'0 0.0
2017-Oct-17 07:59N 70°49' E 027°30'0 0.0
2017-Oct-17 07:29N 70°49' E 027°30'0 0.0
2017-Oct-17 07:01N 70°49' E 027°30'0 0.0
2017-Oct-17 06:26N 70°49' E 027°30'0 0.0
2017-Oct-17 06:00N 70°49' E 027°30'0 0.0
2017-Oct-17 05:30N 70°49' E 027°30'0 0.0
2017-Oct-17 05:00N 70°49' E 027°30'0 0.0
2017-Oct-17 04:30N 70°49' E 027°30'0 0.0
2017-Oct-17 04:00N 70°49' E 027°30'1 2.2
2017-Oct-17 03:30N 70°50' E 027°28'5 8.9
2017-Oct-17 03:00N 70°52' E 027°16'611.2
2017-Oct-17 02:30N 70°55' E 027°01'611.5
2017-Oct-17 02:00N 70°58' E 026°46'510.9
2017-Oct-17 01:30N 70°58' E 026°30'611.2
2017-Oct-17 01:00N 70°57' E 026°13'611.2
2017-Oct-17 00:30N 70°56' E 025°56'611.5
2017-Oct-17 00:00N 70°56' E 025°39'612.2
2017-Oct-16 23:30N 70°59' E 025°23'611.8
2017-Oct-16 23:00N 70°59' E 025°04'612.2
2017-Oct-16 22:30N 71°00' E 024°46'611.1
2017-Oct-16 22:00N 71°00' E 024°29'612.0
2017-Oct-16 21:30N 70°56' E 024°17'611.2
2017-Oct-16 21:00N 70°52' E 024°04'510.5
2017-Oct-16 20:30N 70°49' E 023°52'510.3
2017-Oct-16 20:00N 70°46' E 023°39'510.6
2017-Oct-16 19:30N 70°43' E 023°27'510.2
2017-Oct-16 19:00N 70°39' E 023°15'611.0
2017-Oct-16 18:30N 70°34' E 023°06'510.8
2017-Oct-16 18:00N 70°30' E 022°55'510.3
2017-Oct-16 17:30N 70°29' E 022°41'510.9
2017-Oct-16 17:00N 70°28' E 022°25'611.7
2017-Oct-16 16:30N 70°26' E 022°08'611.7
2017-Oct-16 16:01N 70°25' E 021°51'611.0
2017-Oct-16 15:29N 70°22' E 021°36'611.6
2017-Oct-16 15:00N 70°18' E 021°25'1111.1
2017-Oct-16 14:00N 70°09' E 021°07'611.4
2017-Oct-16 13:30N 70°03' E 021°03'2 3.0
2017-Oct-16 12:59N 70°02' E 020°59'0 0.0
2017-Oct-16 12:30N 70°02' E 020°59'0 0.0
2017-Oct-16 12:00N 70°02' E 020°59'0 0.0
2017-Oct-16 11:29N 70°02' E 020°59'2 3.2
2017-Oct-16 11:00N 70°03' E 021°03'5 9.9
2017-Oct-16 10:30N 70°08' E 021°06'5 9.3
2017-Oct-16 09:59N 70°13' E 021°08'5 9.5
2017-Oct-16 09:30N 70°16' E 021°18'5 9.9
2017-Oct-16 09:00N 70°19' E 021°29'5 9.9
2017-Oct-16 08:30N 70°23' E 021°38'5 9.8
2017-Oct-16 08:00N 70°25' E 021°52'5 9.9
2017-Oct-16 07:30N 70°26' E 022°06'510.1
2017-Oct-16 07:00N 70°27' E 022°21'510.4
2017-Oct-16 06:30N 70°29' E 022°36'510.2
2017-Oct-16 06:00N 70°30' E 022°51'5 9.4
2017-Oct-16 05:30N 70°33' E 023°02'5 9.5
2017-Oct-16 05:00N 70°36' E 023°12'5 9.7
2017-Oct-16 04:30N 70°40' E 023°22'5 9.9
2017-Oct-16 04:00N 70°44' E 023°32'5 9.6
2017-Oct-16 03:29N 70°47' E 023°43'5 9.8
2017-Oct-16 03:00N 70°50' E 023°54'5 9.8
2017-Oct-16 02:30N 70°53' E 024°06'510.2
2017-Oct-16 02:00N 70°56' E 024°17'5 9.7
2017-Oct-16 01:30N 70°60' E 024°27'4 8.8
2017-Oct-16 01:00N 71°01' E 024°40'510.1
2017-Oct-16 00:30N 70°60' E 024°55'510.0
2017-Oct-16 00:01N 70°59' E 025°10'5 9.8
2017-Oct-15 23:31N 70°58' E 025°25'4 8.4
2017-Oct-15 23:00N 70°56' E 025°35'510.3
2017-Oct-15 22:30N 70°56' E 025°51'510.2
2017-Oct-15 22:00N 70°57' E 026°06'510.4
2017-Oct-15 21:30N 70°58' E 026°22'510.2
2017-Oct-15 21:00N 70°58' E 026°37'5 9.5
2017-Oct-15 20:30N 70°57' E 026°51'510.3
2017-Oct-15 20:00N 70°54' E 027°05'510.4
2017-Oct-15 19:30N 70°52' E 027°18'5 9.5
2017-Oct-15 19:00N 70°49' E 027°30'0 0.2
2017-Oct-15 18:30N 70°49' E 027°30'0 0.0
2017-Oct-15 18:00N 70°49' E 027°30'0 0.0
2017-Oct-15 17:30N 70°49' E 027°30'0 0.0
2017-Oct-15 17:00N 70°49' E 027°30'0 0.0
2017-Oct-15 16:30N 70°49' E 027°30'0 0.0
2017-Oct-15 16:00N 70°49' E 027°30'0 0.5
2017-Oct-15 15:30N 70°49' E 027°30'5 9.4
2017-Oct-15 15:00N 70°52' E 027°18'1110.9
2017-Oct-15 14:00N 70°57' E 026°49'510.2
2017-Oct-15 13:30N 70°58' E 026°34'611.2
2017-Oct-15 13:00N 70°57' E 026°17'611.1
2017-Oct-15 12:30N 70°56' E 026°01'611.4
2017-Oct-15 12:00N 70°56' E 025°44'610.7
2017-Oct-15 11:29N 70°58' E 025°27'510.8
2017-Oct-15 11:00N 70°59' E 025°12'611.0
2017-Oct-15 10:30N 70°60' E 024°55'510.7
2017-Oct-15 10:00N 71°01' E 024°39'5 9.7
2017-Oct-15 09:30N 70°59' E 024°26'611.3
2017-Oct-15 09:00N 70°55' E 024°15'611.4
2017-Oct-15 08:30N 70°51' E 024°01'510.8
2017-Oct-15 08:00N 70°48' E 023°49'611.2
2017-Oct-15 07:30N 70°44' E 023°36'611.5
2017-Oct-15 07:00N 70°40' E 023°24'611.5
2017-Oct-15 06:30N 70°36' E 023°11'611.9
2017-Oct-15 06:00N 70°32' E 022°59'611.8
2017-Oct-15 05:29N 70°30' E 022°42'510.6
2017-Oct-15 05:00N 70°28' E 022°28'611.5
2017-Oct-15 04:30N 70°27' E 022°11'611.6
2017-Oct-15 04:00N 70°25' E 021°54'611.3
2017-Oct-15 03:30N 70°23' E 021°38'611.5
2017-Oct-15 03:00N 70°19' E 021°27'611.5
2017-Oct-15 02:30N 70°15' E 021°14'611.4
2017-Oct-15 01:59N 70°10' E 021°07'611.6
2017-Oct-15 01:30N 70°04' E 021°03'2 4.9
2017-Oct-15 01:00N 70°02' E 020°59'0 0.0
2017-Oct-15 00:30N 70°02' E 020°59'0 0.0
2017-Oct-15 00:00N 70°02' E 020°59'0 0.0
2017-Oct-14 23:30N 70°02' E 020°59'3 5.6
2017-Oct-14 22:59N 70°04' E 021°04'5 9.8
2017-Oct-14 22:30N 70°09' E 021°07'5 9.2
2017-Oct-14 22:00N 70°14' E 021°10'5 9.8
2017-Oct-14 21:30N 70°17' E 021°21'510.1
2017-Oct-14 21:00N 70°20' E 021°32'5 9.8
2017-Oct-14 20:30N 70°24' E 021°41'5 9.7
2017-Oct-14 20:00N 70°25' E 021°56'5 9.8
2017-Oct-14 19:30N 70°26' E 022°10'510.1
2017-Oct-14 18:59N 70°28' E 022°25'510.1
2017-Oct-14 18:30N 70°29' E 022°39'5 9.5
2017-Oct-14 18:00N 70°30' E 022°52'4 8.9
2017-Oct-14 17:30N 70°33' E 023°03'5 9.0
2017-Oct-14 17:00N 70°36' E 023°13'5 9.1
2017-Oct-14 16:30N 70°40' E 023°22'5 9.3
2017-Oct-14 16:00N 70°43' E 023°31'5 9.7
2017-Oct-14 15:30N 70°46' E 023°42'5 9.5
2017-Oct-14 15:00N 70°49' E 023°53'5 9.5
2017-Oct-14 14:30N 70°52' E 024°04'5 9.7
2017-Oct-14 14:00N 70°56' E 024°16'5 9.5
2017-Oct-14 13:30N 70°59' E 024°25'5 9.0
2017-Oct-14 13:00N 71°01' E 024°38'510.5
2017-Oct-14 12:30N 70°60' E 024°53'510.2
2017-Oct-14 12:00N 70°59' E 025°08'510.2
2017-Oct-14 11:30N 70°59' E 025°24'510.1
2017-Oct-14 11:00N 70°56' E 025°37'510.3
2017-Oct-14 10:30N 70°56' E 025°52'5 9.9
2017-Oct-14 10:00N 70°57' E 026°07'510.1
2017-Oct-14 09:30N 70°58' E 026°22'5 9.9
2017-Oct-14 09:00N 70°58' E 026°37'5 9.7
2017-Oct-14 08:30N 70°57' E 026°51'510.3
2017-Oct-14 08:00N 70°54' E 027°05'510.4
2017-Oct-14 07:30N 70°52' E 027°18'5 9.4
2017-Oct-14 07:00N 70°49' E 027°30'0 0.1
2017-Oct-14 06:30N 70°49' E 027°30'0 0.0
2017-Oct-14 06:00N 70°49' E 027°30'0 0.0
2017-Oct-14 05:30N 70°49' E 027°30'0 0.0
2017-Oct-14 05:00N 70°49' E 027°30'0 0.0
2017-Oct-14 04:30N 70°49' E 027°30'0 0.0
2017-Oct-14 04:00N 70°49' E 027°30'0 0.0
2017-Oct-14 03:30N 70°49' E 027°30'0 0.0
2017-Oct-14 03:00N 70°49' E 027°30'1 1.8
2017-Oct-14 02:30N 70°49' E 027°28'5 9.0
2017-Oct-14 02:00N 70°52' E 027°16'511.0
2017-Oct-14 01:30N 70°55' E 027°02'510.5
2017-Oct-14 01:00N 70°58' E 026°48'5 9.8
2017-Oct-14 00:30N 70°58' E 026°34'611.2
2017-Oct-14 00:00N 70°57' E 026°17'611.1
2017-Oct-13 23:30N 70°56' E 026°00'611.4
2017-Oct-13 23:00N 70°56' E 025°42'510.1
2017-Oct-13 22:30N 70°57' E 025°28'5 9.8
2017-Oct-13 22:00N 70°59' E 025°14'5 9.9
2017-Oct-13 21:30N 70°59' E 024°59'510.2
2017-Oct-13 21:00N 71°01' E 024°44'5 9.3
2017-Oct-13 20:30N 71°00' E 024°30'510.7
2017-Oct-13 20:00N 70°56' E 024°19'611.3
2017-Oct-13 19:30N 70°53' E 024°06'510.5
2017-Oct-13 19:00N 70°50' E 023°54'510.7
2017-Oct-13 18:30N 70°46' E 023°41'510.6
2017-Oct-13 18:00N 70°42' E 023°32'3 6.4
2017-Oct-13 17:30N 70°40' E 023°40'0 0.0
2017-Oct-13 17:00N 70°40' E 023°40'0 0.0
2017-Oct-13 16:30N 70°40' E 023°40'0 0.0
2017-Oct-13 16:00N 70°40' E 023°40'0 0.0
2017-Oct-13 15:30N 70°40' E 023°40'1 1.1
2017-Oct-13 15:00N 70°40' E 023°39'2 3.4
2017-Oct-13 14:30N 70°39' E 023°34'5 9.9
2017-Oct-13 14:00N 70°37' E 023°20'612.4
2017-Oct-13 13:30N 70°33' E 023°06'611.8
2017-Oct-13 13:00N 70°30' E 022°51'511.2
2017-Oct-13 12:30N 70°29' E 022°35'611.2
2017-Oct-13 12:00N 70°27' E 022°18'611.7
2017-Oct-13 11:30N 70°26' E 022°01'611.7
2017-Oct-13 11:00N 70°24' E 021°45'611.0
2017-Oct-13 10:29N 70°20' E 021°32'611.6
2017-Oct-13 10:00N 70°17' E 021°20'611.5
2017-Oct-13 09:30N 70°12' E 021°09'612.3
2017-Oct-13 08:59N 70°06' E 021°05'5 9.5
2017-Oct-13 08:30N 70°02' E 020°59'0 0.2
2017-Oct-13 08:00N 70°02' E 020°59'84 8.2
2017-Oct-12 21:40N 69°09' E 017°51'210.3
2017-Oct-12 21:30N 69°09' E 017°46'510.2
2017-Oct-12 21:00N 69°07' E 017°33'19 4.2
2017-Oct-12 16:24N 68°56' E 016°48'410.2
2017-Oct-12 15:59N 68°58' E 016°58'611.9
2017-Oct-12 15:29N 69°00' E 017°14'611.8
2017-Oct-12 15:00N 69°05' E 017°23'611.7
2017-Oct-12 14:30N 69°08' E 017°38'612.0
2017-Oct-12 14:00N 69°10' E 017°53'4 7.9
2017-Oct-12 13:30N 69°13' E 017°57'611.3
2017-Oct-12 13:00N 69°19' E 017°59'511.0
2017-Oct-12 12:30N 69°24' E 018°06'510.8
2017-Oct-12 12:00N 69°29' E 018°11'611.8
2017-Oct-12 11:30N 69°31' E 018°26'611.5
2017-Oct-12 11:00N 69°33' E 018°42'611.1
2017-Oct-12 10:30N 69°37' E 018°54'2 3.2
2017-Oct-12 10:00N 69°38' E 018°57'510.5
2017-Oct-12 09:30N 69°43' E 019°03'510.6
2017-Oct-12 09:00N 69°47' E 019°13'611.8
2017-Oct-12 08:30N 69°49' E 019°29'611.7
2017-Oct-12 08:00N 69°51' E 019°44'611.6
2017-Oct-12 07:30N 69°55' E 019°58'611.7
2017-Oct-12 07:00N 69°58' E 020°12'611.4
2017-Oct-12 06:30N 70°01' E 020°27'611.4
2017-Oct-12 06:00N 70°02' E 020°43'510.8
2017-Oct-12 05:30N 70°04' E 020°58'2 3.8
2017-Oct-12 05:00N 70°02' E 020°59'0 0.0
2017-Oct-12 04:30N 70°02' E 020°59'0 0.0
2017-Oct-12 03:59N 70°02' E 020°59'0 0.0
2017-Oct-12 03:30N 70°02' E 020°59'0 0.7
2017-Oct-12 03:00N 70°02' E 021°00'3 6.1
2017-Oct-12 02:30N 70°03' E 020°52'611.0
2017-Oct-12 02:00N 70°01' E 020°37'510.5
2017-Oct-12 01:30N 69°60' E 020°22'510.4
2017-Oct-12 01:00N 69°58' E 020°09'510.6
2017-Oct-12 00:30N 69°54' E 019°57'510.6
2017-Oct-12 00:00N 69°51' E 019°45'510.8
2017-Oct-11 23:30N 69°49' E 019°30'510.8
2017-Oct-11 23:00N 69°47' E 019°16'510.3
2017-Oct-11 22:30N 69°44' E 019°04'510.5
2017-Oct-11 22:00N 69°39' E 018°59'510.7
2017-Oct-11 21:30N 69°35' E 018°50'4 8.9
2017-Oct-11 21:00N 69°33' E 018°39'510.3
2017-Oct-11 20:30N 69°31' E 018°25'5 9.9
2017-Oct-11 20:00N 69°29' E 018°12'5 9.6
2017-Oct-11 19:30N 69°24' E 018°07'510.1
2017-Oct-11 19:00N 69°20' E 018°02'5 9.7
2017-Oct-11 18:30N 69°15' E 017°58'4 8.6
2017-Oct-11 18:00N 69°11' E 017°59'510.0
2017-Oct-11 17:30N 69°08' E 017°47'510.3
2017-Oct-11 17:00N 69°07' E 017°33'31 1.8
2017-Oct-11 00:00N 69°31' E 018°28'511.0
2017-Oct-10 23:30N 69°33' E 018°43'5 9.7
2017-Oct-10 23:00N 69°36' E 018°53'611.0
2017-Oct-10 22:30N 69°41' E 019°02'510.9
2017-Oct-10 22:00N 69°46' E 019°08'611.7
2017-Oct-10 21:30N 69°48' E 019°24'611.7
2017-Oct-10 21:00N 69°50' E 019°40'611.7
2017-Oct-10 20:30N 69°54' E 019°54'611.8
2017-Oct-10 20:00N 69°57' E 020°08'611.7
2017-Oct-10 19:30N 70°00' E 020°22'611.7
2017-Oct-10 19:00N 70°02' E 020°39'611.7
2017-Oct-10 18:30N 70°03' E 020°55'2 4.0
2017-Oct-10 18:00N 70°02' E 020°59'0 0.0
2017-Oct-10 17:30N 70°02' E 020°59'0 0.0
2017-Oct-10 17:00N 70°02' E 020°59'0 0.0
2017-Oct-10 16:30N 70°02' E 020°59'0 0.1
2017-Oct-10 15:59N 70°02' E 020°59'2 4.4
2017-Oct-10 15:30N 70°03' E 020°55'611.2
2017-Oct-10 15:00N 70°02' E 020°39'1010.5
2017-Oct-10 14:00N 69°58' E 020°10'510.6
2017-Oct-10 13:29N 69°55' E 019°58'510.3
2017-Oct-10 13:00N 69°52' E 019°47'510.6
2017-Oct-10 12:30N 69°49' E 019°33'510.7
2017-Oct-10 12:00N 69°47' E 019°18'510.6
2017-Oct-10 11:30N 69°45' E 019°05'510.6
2017-Oct-10 11:00N 69°40' E 019°00'611.0
2017-Oct-10 10:30N 69°35' E 018°51'611.5
2017-Oct-10 10:00N 69°33' E 018°37'510.7
2017-Oct-10 09:30N 69°31' E 018°22'510.3
2017-Oct-10 08:59N 69°28' E 018°09'510.3
2017-Oct-10 08:29N 69°23' E 018°06'5 9.6
2017-Oct-10 08:00N 69°19' E 018°00'5 9.7
2017-Oct-10 07:30N 69°14' E 017°58'4 8.1
2017-Oct-10 07:00N 69°10' E 017°58'510.2
2017-Oct-10 06:30N 69°08' E 017°45'510.3
2017-Oct-10 06:00N 69°07' E 017°32'5 9.8
2017-Oct-10 05:30N 69°03' E 017°21'510.0
2017-Oct-10 05:00N 68°60' E 017°12'510.3
2017-Oct-10 04:30N 68°58' E 016°58'510.3
2017-Oct-10 04:00N 68°56' E 016°45'1 1.1
2017-Oct-10 03:30N 68°56' E 016°44'0 0.0
2017-Oct-10 03:00N 68°56' E 016°44'0 0.0
2017-Oct-10 02:30N 68°56' E 016°44'0 0.0
2017-Oct-10 02:00N 68°56' E 016°44'0 0.0
2017-Oct-10 01:30N 68°56' E 016°44'0 0.0
2017-Oct-10 01:00N 68°56' E 016°44'0 0.0
2017-Oct-10 00:30N 68°56' E 016°44'0 0.0
2017-Oct-10 00:00N 68°56' E 016°44'0 0.0
2017-Oct-09 23:30N 68°56' E 016°44'1 1.5
2017-Oct-09 23:00N 68°56' E 016°45'3 5.8
2017-Oct-09 22:30N 68°58' E 016°53'4 7.9
2017-Oct-09 22:00N 68°59' E 017°03'611.4
2017-Oct-09 21:30N 69°01' E 017°17'611.7
2017-Oct-09 21:00N 69°06' E 017°28'612.0
2017-Oct-09 20:30N 69°08' E 017°43'612.0
2017-Oct-09 20:00N 69°11' E 017°59'  

Dump ship's entire track history